sensor_id;sensor_type;location;lat;lon;timestamp;P1;durP1;ratioP1;P2;durP2;ratioP2
64887;SDS011;51386;53.082;8.816;2023-08-06T00:01:03;2.83;;;2.53;;
64887;SDS011;51386;53.082;8.816;2023-08-06T00:03:30;2.80;;;2.53;;
64887;SDS011;51386;53.082;8.816;2023-08-06T00:05:57;2.60;;;2.40;;
64887;SDS011;51386;53.082;8.816;2023-08-06T00:08:24;2.53;;;2.33;;
64887;SDS011;51386;53.082;8.816;2023-08-06T00:10:51;2.43;;;2.23;;
64887;SDS011;51386;53.082;8.816;2023-08-06T00:13:18;2.77;;;2.30;;
64887;SDS011;51386;53.082;8.816;2023-08-06T00:15:45;3.03;;;2.73;;
64887;SDS011;51386;53.082;8.816;2023-08-06T00:18:14;2.33;;;2.13;;
64887;SDS011;51386;53.082;8.816;2023-08-06T00:20:41;2.40;;;2.20;;
64887;SDS011;51386;53.082;8.816;2023-08-06T00:23:08;3.47;;;2.70;;
64887;SDS011;51386;53.082;8.816;2023-08-06T00:25:35;2.40;;;2.20;;
64887;SDS011;51386;53.082;8.816;2023-08-06T00:28:03;2.27;;;2.07;;
64887;SDS011;51386;53.082;8.816;2023-08-06T00:30:30;2.43;;;2.13;;
64887;SDS011;51386;53.082;8.816;2023-08-06T00:32:57;3.23;;;2.30;;
64887;SDS011;51386;53.082;8.816;2023-08-06T00:35:26;2.33;;;2.13;;
64887;SDS011;51386;53.082;8.816;2023-08-06T00:37:53;2.10;;;2.00;;
64887;SDS011;51386;53.082;8.816;2023-08-06T00:40:20;4.23;;;2.37;;
64887;SDS011;51386;53.082;8.816;2023-08-06T00:42:48;2.63;;;2.27;;
64887;SDS011;51386;53.082;8.816;2023-08-06T00:45:16;2.60;;;2.40;;
64887;SDS011;51386;53.082;8.816;2023-08-06T00:47:43;2.63;;;2.40;;
64887;SDS011;51386;53.082;8.816;2023-08-06T00:50:12;2.70;;;2.50;;
64887;SDS011;51386;53.082;8.816;2023-08-06T00:52:40;3.67;;;2.90;;
64887;SDS011;51386;53.082;8.816;2023-08-06T00:55:08;6.27;;;3.30;;
64887;SDS011;51386;53.082;8.816;2023-08-06T00:57:36;2.87;;;2.67;;
64887;SDS011;51386;53.082;8.816;2023-08-06T01:00:04;2.87;;;2.10;;
64887;SDS011;51386;53.082;8.816;2023-08-06T01:02:32;3.53;;;3.23;;
64887;SDS011;51386;53.082;8.816;2023-08-06T01:04:59;3.43;;;3.13;;
64887;SDS011;51386;53.082;8.816;2023-08-06T01:07:30;3.53;;;3.23;;
64887;SDS011;51386;53.082;8.816;2023-08-06T01:10:20;4.30;;;3.90;;
64887;SDS011;51386;53.082;8.816;2023-08-06T01:13:02;3.63;;;3.33;;
64887;SDS011;51386;53.082;8.816;2023-08-06T01:15:43;4.00;;;3.60;;
64887;SDS011;51386;53.082;8.816;2023-08-06T01:18:13;3.70;;;3.37;;
64887;SDS011;51386;53.082;8.816;2023-08-06T01:20:43;3.73;;;3.33;;
64887;SDS011;51386;53.082;8.816;2023-08-06T01:23:10;4.33;;;3.93;;
64887;SDS011;51386;53.082;8.816;2023-08-06T01:25:39;4.93;;;3.97;;
64887;SDS011;51386;53.082;8.816;2023-08-06T01:28:15;4.97;;;3.87;;
64887;SDS011;51386;53.082;8.816;2023-08-06T01:30:53;3.47;;;3.17;;
64887;SDS011;51386;53.082;8.816;2023-08-06T01:33:26;3.73;;;3.40;;
64887;SDS011;51386;53.082;8.816;2023-08-06T01:36:00;4.50;;;3.60;;
64887;SDS011;51386;53.082;8.816;2023-08-06T01:38:29;3.70;;;3.10;;
64887;SDS011;51386;53.082;8.816;2023-08-06T01:40:57;4.03;;;3.63;;
64887;SDS011;51386;53.082;8.816;2023-08-06T01:43:24;3.20;;;2.90;;
64887;SDS011;51386;53.082;8.816;2023-08-06T01:45:51;4.00;;;3.53;;
64887;SDS011;51386;53.082;8.816;2023-08-06T01:48:18;3.50;;;3.20;;
64887;SDS011;51386;53.082;8.816;2023-08-06T01:50:45;2.87;;;2.67;;
64887;SDS011;51386;53.082;8.816;2023-08-06T01:53:13;3.20;;;3.00;;
64887;SDS011;51386;53.082;8.816;2023-08-06T01:55:40;3.37;;;3.07;;
64887;SDS011;51386;53.082;8.816;2023-08-06T01:58:07;3.50;;;3.20;;
64887;SDS011;51386;53.082;8.816;2023-08-06T02:00:34;3.30;;;3.00;;
64887;SDS011;51386;53.082;8.816;2023-08-06T02:03:01;2.70;;;2.50;;
64887;SDS011;51386;53.082;8.816;2023-08-06T02:05:29;2.60;;;2.40;;
64887;SDS011;51386;53.082;8.816;2023-08-06T02:07:56;3.97;;;2.60;;
64887;SDS011;51386;53.082;8.816;2023-08-06T02:10:24;2.70;;;2.50;;
64887;SDS011;51386;53.082;8.816;2023-08-06T02:12:51;2.57;;;2.37;;
64887;SDS011;51386;53.082;8.816;2023-08-06T02:15:18;3.20;;;2.90;;
64887;SDS011;51386;53.082;8.816;2023-08-06T02:17:45;3.07;;;2.77;;
64887;SDS011;51386;53.082;8.816;2023-08-06T02:20:12;2.60;;;2.33;;
64887;SDS011;51386;53.082;8.816;2023-08-06T02:22:39;2.57;;;2.37;;
64887;SDS011;51386;53.082;8.816;2023-08-06T02:25:07;2.50;;;2.30;;
64887;SDS011;51386;53.082;8.816;2023-08-06T02:27:36;2.80;;;2.33;;
64887;SDS011;51386;53.082;8.816;2023-08-06T02:30:04;3.03;;;2.73;;
64887;SDS011;51386;53.082;8.816;2023-08-06T02:32:32;2.50;;;2.30;;
64887;SDS011;51386;53.082;8.816;2023-08-06T02:35:02;2.80;;;2.60;;
64887;SDS011;51386;53.082;8.816;2023-08-06T02:37:29;3.10;;;2.40;;
64887;SDS011;51386;53.082;8.816;2023-08-06T02:39:56;2.57;;;2.37;;
64887;SDS011;51386;53.082;8.816;2023-08-06T02:42:23;3.00;;;2.70;;
64887;SDS011;51386;53.082;8.816;2023-08-06T02:44:53;4.63;;;3.07;;
64887;SDS011;51386;53.082;8.816;2023-08-06T02:47:23;2.93;;;2.50;;
64887;SDS011;51386;53.082;8.816;2023-08-06T02:49:50;2.43;;;2.23;;
64887;SDS011;51386;53.082;8.816;2023-08-06T02:52:17;3.70;;;2.67;;
64887;SDS011;51386;53.082;8.816;2023-08-06T02:54:44;4.27;;;2.93;;
64887;SDS011;51386;53.082;8.816;2023-08-06T02:57:11;3.17;;;2.83;;
64887;SDS011;51386;53.082;8.816;2023-08-06T02:59:38;2.27;;;2.13;;
64887;SDS011;51386;53.082;8.816;2023-08-06T03:02:07;3.33;;;2.40;;
64887;SDS011;51386;53.082;8.816;2023-08-06T03:04:34;2.63;;;2.40;;
64887;SDS011;51386;53.082;8.816;2023-08-06T03:07:01;3.27;;;2.97;;
64887;SDS011;51386;53.082;8.816;2023-08-06T03:09:28;3.00;;;2.33;;
64887;SDS011;51386;53.082;8.816;2023-08-06T03:11:55;2.80;;;2.60;;
64887;SDS011;51386;53.082;8.816;2023-08-06T03:14:22;2.50;;;2.30;;
64887;SDS011;51386;53.082;8.816;2023-08-06T03:16:49;2.97;;;2.77;;
64887;SDS011;51386;53.082;8.816;2023-08-06T03:19:17;2.97;;;2.77;;
64887;SDS011;51386;53.082;8.816;2023-08-06T03:21:44;3.53;;;2.47;;
64887;SDS011;51386;53.082;8.816;2023-08-06T03:24:11;3.33;;;3.03;;
64887;SDS011;51386;53.082;8.816;2023-08-06T03:26:39;3.53;;;2.40;;
64887;SDS011;51386;53.082;8.816;2023-08-06T03:29:06;4.30;;;2.67;;
64887;SDS011;51386;53.082;8.816;2023-08-06T03:31:33;3.30;;;2.77;;
64887;SDS011;51386;53.082;8.816;2023-08-06T03:34:01;3.73;;;3.00;;
64887;SDS011;51386;53.082;8.816;2023-08-06T03:36:29;2.80;;;2.50;;
64887;SDS011;51386;53.082;8.816;2023-08-06T03:38:56;2.87;;;2.63;;
64887;SDS011;51386;53.082;8.816;2023-08-06T03:41:23;2.53;;;2.33;;
64887;SDS011;51386;53.082;8.816;2023-08-06T03:43:50;2.60;;;2.40;;
64887;SDS011;51386;53.082;8.816;2023-08-06T03:46:17;3.10;;;2.80;;
64887;SDS011;51386;53.082;8.816;2023-08-06T03:48:44;3.40;;;3.10;;
64887;SDS011;51386;53.082;8.816;2023-08-06T03:51:11;2.77;;;2.57;;
64887;SDS011;51386;53.082;8.816;2023-08-06T03:53:39;3.27;;;3.07;;
64887;SDS011;51386;53.082;8.816;2023-08-06T03:56:07;2.90;;;2.70;;
64887;SDS011;51386;53.082;8.816;2023-08-06T03:58:34;3.40;;;3.10;;
64887;SDS011;51386;53.082;8.816;2023-08-06T04:01:01;2.83;;;2.50;;
64887;SDS011;51386;53.082;8.816;2023-08-06T04:03:29;3.77;;;3.47;;
64887;SDS011;51386;53.082;8.816;2023-08-06T04:05:56;3.27;;;2.97;;
64887;SDS011;51386;53.082;8.816;2023-08-06T04:08:23;3.87;;;3.57;;
64887;SDS011;51386;53.082;8.816;2023-08-06T04:10:52;3.57;;;3.30;;
64887;SDS011;51386;53.082;8.816;2023-08-06T04:13:19;3.63;;;3.10;;
64887;SDS011;51386;53.082;8.816;2023-08-06T04:15:47;2.87;;;2.60;;
64887;SDS011;51386;53.082;8.816;2023-08-06T04:18:14;3.33;;;3.03;;
64887;SDS011;51386;53.082;8.816;2023-08-06T04:20:42;3.27;;;2.87;;
64887;SDS011;51386;53.082;8.816;2023-08-06T04:23:11;3.17;;;2.87;;
64887;SDS011;51386;53.082;8.816;2023-08-06T04:25:38;3.33;;;3.13;;
64887;SDS011;51386;53.082;8.816;2023-08-06T04:28:07;4.20;;;3.30;;
64887;SDS011;51386;53.082;8.816;2023-08-06T04:30:34;3.80;;;3.50;;
64887;SDS011;51386;53.082;8.816;2023-08-06T04:33:03;3.67;;;3.37;;
64887;SDS011;51386;53.082;8.816;2023-08-06T04:35:30;3.57;;;3.27;;
64887;SDS011;51386;53.082;8.816;2023-08-06T04:37:57;3.57;;;3.27;;
64887;SDS011;51386;53.082;8.816;2023-08-06T04:40:24;3.83;;;3.43;;
64887;SDS011;51386;53.082;8.816;2023-08-06T04:42:51;4.07;;;3.67;;
64887;SDS011;51386;53.082;8.816;2023-08-06T04:45:20;6.17;;;4.80;;
64887;SDS011;51386;53.082;8.816;2023-08-06T04:47:50;4.77;;;4.37;;
64887;SDS011;51386;53.082;8.816;2023-08-06T04:50:17;4.23;;;3.93;;
64887;SDS011;51386;53.082;8.816;2023-08-06T04:52:44;4.30;;;4.00;;
64887;SDS011;51386;53.082;8.816;2023-08-06T04:55:11;4.63;;;4.23;;
64887;SDS011;51386;53.082;8.816;2023-08-06T04:57:38;4.53;;;4.13;;
64887;SDS011;51386;53.082;8.816;2023-08-06T05:00:05;4.53;;;4.13;;
64887;SDS011;51386;53.082;8.816;2023-08-06T05:02:35;5.67;;;4.10;;
64887;SDS011;51386;53.082;8.816;2023-08-06T05:05:04;4.90;;;4.43;;
64887;SDS011;51386;53.082;8.816;2023-08-06T05:07:32;5.63;;;5.10;;
64887;SDS011;51386;53.082;8.816;2023-08-06T05:09:59;4.53;;;4.13;;
64887;SDS011;51386;53.082;8.816;2023-08-06T05:12:26;5.23;;;4.77;;
64887;SDS011;51386;53.082;8.816;2023-08-06T05:14:53;4.40;;;4.10;;
64887;SDS011;51386;53.082;8.816;2023-08-06T05:17:20;6.07;;;4.50;;
64887;SDS011;51386;53.082;8.816;2023-08-06T05:19:50;4.47;;;4.07;;
64887;SDS011;51386;53.082;8.816;2023-08-06T05:22:17;4.23;;;3.83;;
64887;SDS011;51386;53.082;8.816;2023-08-06T05:24:44;4.80;;;4.07;;
64887;SDS011;51386;53.082;8.816;2023-08-06T05:27:11;5.13;;;3.97;;
64887;SDS011;51386;53.082;8.816;2023-08-06T05:29:38;4.47;;;4.00;;
64887;SDS011;51386;53.082;8.816;2023-08-06T05:32:06;4.47;;;4.07;;
64887;SDS011;51386;53.082;8.816;2023-08-06T05:34:33;5.30;;;4.20;;
64887;SDS011;51386;53.082;8.816;2023-08-06T05:37:02;4.90;;;4.47;;
64887;SDS011;51386;53.082;8.816;2023-08-06T05:39:29;4.47;;;4.17;;
64887;SDS011;51386;53.082;8.816;2023-08-06T05:41:56;6.23;;;4.70;;
64887;SDS011;51386;53.082;8.816;2023-08-06T05:44:23;4.90;;;4.50;;
64887;SDS011;51386;53.082;8.816;2023-08-06T05:46:50;4.83;;;4.40;;
64887;SDS011;51386;53.082;8.816;2023-08-06T05:49:19;4.80;;;4.40;;
64887;SDS011;51386;53.082;8.816;2023-08-06T05:51:46;4.60;;;4.20;;
64887;SDS011;51386;53.082;8.816;2023-08-06T05:54:15;4.17;;;3.87;;
64887;SDS011;51386;53.082;8.816;2023-08-06T05:56:42;4.77;;;4.33;;
64887;SDS011;51386;53.082;8.816;2023-08-06T05:59:10;4.20;;;3.90;;
64887;SDS011;51386;53.082;8.816;2023-08-06T06:01:37;3.90;;;3.60;;
64887;SDS011;51386;53.082;8.816;2023-08-06T06:04:04;3.80;;;3.50;;
64887;SDS011;51386;53.082;8.816;2023-08-06T06:06:31;4.80;;;4.40;;
64887;SDS011;51386;53.082;8.816;2023-08-06T06:08:58;4.23;;;3.83;;
64887;SDS011;51386;53.082;8.816;2023-08-06T06:11:26;4.47;;;3.87;;
64887;SDS011;51386;53.082;8.816;2023-08-06T06:13:53;4.77;;;4.37;;
64887;SDS011;51386;53.082;8.816;2023-08-06T06:16:20;5.13;;;4.60;;
64887;SDS011;51386;53.082;8.816;2023-08-06T06:18:47;4.57;;;3.97;;
64887;SDS011;51386;53.082;8.816;2023-08-06T06:21:14;4.30;;;3.90;;
64887;SDS011;51386;53.082;8.816;2023-08-06T06:23:41;3.90;;;3.60;;
64887;SDS011;51386;53.082;8.816;2023-08-06T06:26:08;3.80;;;3.50;;
64887;SDS011;51386;53.082;8.816;2023-08-06T06:28:37;4.13;;;3.73;;
64887;SDS011;51386;53.082;8.816;2023-08-06T06:31:04;3.50;;;3.20;;
64887;SDS011;51386;53.082;8.816;2023-08-06T06:33:31;4.07;;;3.77;;
64887;SDS011;51386;53.082;8.816;2023-08-06T06:35:58;4.63;;;3.77;;
64887;SDS011;51386;53.082;8.816;2023-08-06T06:38:25;3.63;;;3.33;;
64887;SDS011;51386;53.082;8.816;2023-08-06T06:40:53;4.73;;;4.10;;
64887;SDS011;51386;53.082;8.816;2023-08-06T06:43:21;3.63;;;3.33;;
64887;SDS011;51386;53.082;8.816;2023-08-06T06:45:53;3.10;;;2.90;;
64887;SDS011;51386;53.082;8.816;2023-08-06T06:48:25;3.53;;;3.23;;
64887;SDS011;51386;53.082;8.816;2023-08-06T06:50:54;3.80;;;3.50;;
64887;SDS011;51386;53.082;8.816;2023-08-06T06:53:22;3.57;;;3.37;;
64887;SDS011;51386;53.082;8.816;2023-08-06T06:55:53;2.97;;;2.77;;
64887;SDS011;51386;53.082;8.816;2023-08-06T06:58:20;3.33;;;3.10;;
64887;SDS011;51386;53.082;8.816;2023-08-06T07:00:48;3.97;;;2.90;;
64887;SDS011;51386;53.082;8.816;2023-08-06T07:03:17;3.63;;;3.30;;
64887;SDS011;51386;53.082;8.816;2023-08-06T07:05:44;4.17;;;3.87;;
64887;SDS011;51386;53.082;8.816;2023-08-06T07:08:11;3.93;;;3.53;;
64887;SDS011;51386;53.082;8.816;2023-08-06T07:10:40;4.17;;;3.70;;
64887;SDS011;51386;53.082;8.816;2023-08-06T07:13:09;3.30;;;3.00;;
64887;SDS011;51386;53.082;8.816;2023-08-06T07:15:36;3.50;;;3.20;;
64887;SDS011;51386;53.082;8.816;2023-08-06T07:18:03;3.10;;;2.90;;
64887;SDS011;51386;53.082;8.816;2023-08-06T07:20:32;4.40;;;4.00;;
64887;SDS011;51386;53.082;8.816;2023-08-06T07:23:00;3.50;;;3.20;;
64887;SDS011;51386;53.082;8.816;2023-08-06T07:25:27;4.27;;;3.93;;
64887;SDS011;51386;53.082;8.816;2023-08-06T07:27:54;4.40;;;4.00;;
64887;SDS011;51386;53.082;8.816;2023-08-06T07:30:23;3.77;;;3.47;;
64887;SDS011;51386;53.082;8.816;2023-08-06T07:32:50;3.53;;;3.23;;
64887;SDS011;51386;53.082;8.816;2023-08-06T07:35:17;4.03;;;3.60;;
64887;SDS011;51386;53.082;8.816;2023-08-06T07:37:45;3.73;;;3.43;;
64887;SDS011;51386;53.082;8.816;2023-08-06T07:40:12;3.07;;;2.83;;
64887;SDS011;51386;53.082;8.816;2023-08-06T07:42:40;3.20;;;2.90;;
64887;SDS011;51386;53.082;8.816;2023-08-06T07:45:09;2.53;;;2.33;;
64887;SDS011;51386;53.082;8.816;2023-08-06T07:47:36;3.30;;;2.97;;
64887;SDS011;51386;53.082;8.816;2023-08-06T07:50:04;3.23;;;2.93;;
64887;SDS011;51386;53.082;8.816;2023-08-06T07:52:32;3.40;;;3.10;;
64887;SDS011;51386;53.082;8.816;2023-08-06T07:55:00;3.27;;;3.07;;
64887;SDS011;51386;53.082;8.816;2023-08-06T07:57:31;2.97;;;2.67;;
64887;SDS011;51386;53.082;8.816;2023-08-06T07:59:58;2.90;;;2.70;;
64887;SDS011;51386;53.082;8.816;2023-08-06T08:02:26;3.20;;;2.87;;
64887;SDS011;51386;53.082;8.816;2023-08-06T08:04:53;3.30;;;3.00;;
64887;SDS011;51386;53.082;8.816;2023-08-06T08:07:20;3.53;;;2.80;;
64887;SDS011;51386;53.082;8.816;2023-08-06T08:09:47;3.03;;;2.83;;
64887;SDS011;51386;53.082;8.816;2023-08-06T08:12:16;4.60;;;3.03;;
64887;SDS011;51386;53.082;8.816;2023-08-06T08:14:43;2.60;;;2.40;;
64887;SDS011;51386;53.082;8.816;2023-08-06T08:17:11;3.07;;;2.77;;
64887;SDS011;51386;53.082;8.816;2023-08-06T08:19:39;2.60;;;2.40;;
64887;SDS011;51386;53.082;8.816;2023-08-06T08:22:06;2.50;;;2.30;;
64887;SDS011;51386;53.082;8.816;2023-08-06T08:24:34;3.07;;;2.83;;
64887;SDS011;51386;53.082;8.816;2023-08-06T08:27:01;2.50;;;2.30;;
64887;SDS011;51386;53.082;8.816;2023-08-06T08:29:30;2.57;;;2.37;;
64887;SDS011;51386;53.082;8.816;2023-08-06T08:31:57;2.47;;;2.27;;
64887;SDS011;51386;53.082;8.816;2023-08-06T08:34:25;2.67;;;2.47;;
64887;SDS011;51386;53.082;8.816;2023-08-06T08:36:52;2.47;;;2.27;;
64887;SDS011;51386;53.082;8.816;2023-08-06T08:39:19;2.10;;;2.00;;
64887;SDS011;51386;53.082;8.816;2023-08-06T08:41:46;2.40;;;2.07;;
64887;SDS011;51386;53.082;8.816;2023-08-06T08:44:13;2.50;;;2.30;;
64887;SDS011;51386;53.082;8.816;2023-08-06T08:46:45;2.93;;;2.73;;
64887;SDS011;51386;53.082;8.816;2023-08-06T08:49:15;2.30;;;2.10;;
64887;SDS011;51386;53.082;8.816;2023-08-06T08:51:44;3.00;;;2.80;;
64887;SDS011;51386;53.082;8.816;2023-08-06T08:54:13;2.80;;;2.30;;
64887;SDS011;51386;53.082;8.816;2023-08-06T08:56:43;2.90;;;2.70;;
64887;SDS011;51386;53.082;8.816;2023-08-06T08:59:10;3.63;;;3.30;;
64887;SDS011;51386;53.082;8.816;2023-08-06T09:01:37;3.07;;;2.83;;
64887;SDS011;51386;53.082;8.816;2023-08-06T09:04:10;2.70;;;2.50;;
64887;SDS011;51386;53.082;8.816;2023-08-06T09:06:38;3.00;;;2.80;;
64887;SDS011;51386;53.082;8.816;2023-08-06T09:09:08;2.77;;;2.57;;
64887;SDS011;51386;53.082;8.816;2023-08-06T09:11:42;3.33;;;3.00;;
64887;SDS011;51386;53.082;8.816;2023-08-06T09:14:10;4.90;;;4.03;;
64887;SDS011;51386;53.082;8.816;2023-08-06T09:16:38;4.47;;;4.05;;
64887;SDS011;51386;53.082;8.816;2023-08-06T09:19:09;2.67;;;2.47;;
64887;SDS011;51386;53.082;8.816;2023-08-06T09:21:44;2.55;;;2.35;;
64887;SDS011;51386;53.082;8.816;2023-08-06T09:24:15;3.15;;;2.85;;
64887;SDS011;51386;53.082;8.816;2023-08-06T09:26:42;3.58;;;2.47;;
64887;SDS011;51386;53.082;8.816;2023-08-06T09:29:11;2.33;;;2.15;;
64887;SDS011;51386;53.082;8.816;2023-08-06T09:31:41;2.40;;;2.20;;
64887;SDS011;51386;53.082;8.816;2023-08-06T09:34:12;2.05;;;1.83;;
64887;SDS011;51386;53.082;8.816;2023-08-06T09:36:43;2.10;;;2.00;;
64887;SDS011;51386;53.082;8.816;2023-08-06T09:39:14;2.33;;;2.22;;
64887;SDS011;51386;53.082;8.816;2023-08-06T09:41:43;2.22;;;2.05;;
64887;SDS011;51386;53.082;8.816;2023-08-06T09:44:15;2.80;;;2.60;;
64887;SDS011;51386;53.082;8.816;2023-08-06T09:46:46;2.70;;;2.50;;
64887;SDS011;51386;53.082;8.816;2023-08-06T09:49:15;2.67;;;2.47;;
64887;SDS011;51386;53.082;8.816;2023-08-06T09:51:46;1.80;;;1.70;;
64887;SDS011;51386;53.082;8.816;2023-08-06T09:54:17;2.20;;;2.10;;
64887;SDS011;51386;53.082;8.816;2023-08-06T09:56:53;2.47;;;2.28;;
64887;SDS011;51386;53.082;8.816;2023-08-06T09:59:22;1.70;;;1.58;;
64887;SDS011;51386;53.082;8.816;2023-08-06T10:01:50;2.90;;;2.70;;
64887;SDS011;51386;53.082;8.816;2023-08-06T10:04:20;2.30;;;2.17;;
64887;SDS011;51386;53.082;8.816;2023-08-06T10:06:51;2.55;;;2.35;;
64887;SDS011;51386;53.082;8.816;2023-08-06T10:09:20;2.10;;;1.98;;
64887;SDS011;51386;53.082;8.816;2023-08-06T10:11:49;3.20;;;2.05;;
64887;SDS011;51386;53.082;8.816;2023-08-06T10:14:23;3.38;;;2.30;;
64887;SDS011;51386;53.082;8.816;2023-08-06T10:16:54;7.75;;;5.35;;
64887;SDS011;51386;53.082;8.816;2023-08-06T10:19:25;2.35;;;2.17;;
64887;SDS011;51386;53.082;8.816;2023-08-06T10:22:09;3.30;;;3.10;;
64887;SDS011;51386;53.082;8.816;2023-08-06T10:24:45;4.78;;;4.35;;
64887;SDS011;51386;53.082;8.816;2023-08-06T10:27:23;2.53;;;2.33;;
64887;SDS011;51386;53.082;8.816;2023-08-06T10:32:56;3.80;;;3.50;;
64887;SDS011;51386;53.082;8.816;2023-08-06T10:35:31;2.63;;;2.42;;
64887;SDS011;51386;53.082;8.816;2023-08-06T10:38:03;2.40;;;2.20;;
64887;SDS011;51386;53.082;8.816;2023-08-06T10:40:32;2.28;;;2.10;;
64887;SDS011;51386;53.082;8.816;2023-08-06T10:43:00;2.33;;;2.20;;
64887;SDS011;51386;53.082;8.816;2023-08-06T10:45:28;1.85;;;1.75;;
64887;SDS011;51386;53.082;8.816;2023-08-06T10:47:56;2.70;;;1.92;;
64887;SDS011;51386;53.082;8.816;2023-08-06T10:50:24;2.05;;;1.95;;
64887;SDS011;51386;53.082;8.816;2023-08-06T10:52:53;1.98;;;1.80;;
64887;SDS011;51386;53.082;8.816;2023-08-06T10:55:24;1.98;;;1.80;;
64887;SDS011;51386;53.082;8.816;2023-08-06T10:57:53;1.85;;;1.75;;
64887;SDS011;51386;53.082;8.816;2023-08-06T11:00:22;1.73;;;1.63;;
64887;SDS011;51386;53.082;8.816;2023-08-06T11:02:51;1.70;;;1.60;;
64887;SDS011;51386;53.082;8.816;2023-08-06T11:05:19;1.20;;;1.20;;
64887;SDS011;51386;53.082;8.816;2023-08-06T11:07:47;1.58;;;1.48;;
64887;SDS011;51386;53.082;8.816;2023-08-06T11:10:17;2.15;;;1.73;;
64887;SDS011;51386;53.082;8.816;2023-08-06T11:12:44;1.53;;;1.43;;
64887;SDS011;51386;53.082;8.816;2023-08-06T11:15:11;1.73;;;1.63;;
64887;SDS011;51386;53.082;8.816;2023-08-06T11:17:39;1.63;;;1.53;;
64887;SDS011;51386;53.082;8.816;2023-08-06T11:20:08;2.13;;;1.93;;
64887;SDS011;51386;53.082;8.816;2023-08-06T11:22:36;1.80;;;1.70;;
64887;SDS011;51386;53.082;8.816;2023-08-06T11:25:05;2.70;;;2.50;;
64887;SDS011;51386;53.082;8.816;2023-08-06T11:27:34;2.27;;;2.07;;
64887;SDS011;51386;53.082;8.816;2023-08-06T11:30:02;1.70;;;1.60;;
64887;SDS011;51386;53.082;8.816;2023-08-06T11:32:30;1.93;;;1.50;;
64887;SDS011;51386;53.082;8.816;2023-08-06T11:34:57;2.37;;;1.33;;
64887;SDS011;51386;53.082;8.816;2023-08-06T11:37:24;2.07;;;1.67;;
64887;SDS011;51386;53.082;8.816;2023-08-06T11:39:52;2.40;;;1.50;;
64887;SDS011;51386;53.082;8.816;2023-08-06T11:42:19;2.37;;;2.00;;
64887;SDS011;51386;53.082;8.816;2023-08-06T11:44:48;3.90;;;3.60;;
64887;SDS011;51386;53.082;8.816;2023-08-06T11:47:15;3.40;;;3.00;;
64887;SDS011;51386;53.082;8.816;2023-08-06T11:49:44;2.30;;;2.10;;
64887;SDS011;51386;53.082;8.816;2023-08-06T11:52:14;1.97;;;1.77;;
64887;SDS011;51386;53.082;8.816;2023-08-06T11:54:46;2.83;;;1.80;;
64887;SDS011;51386;53.082;8.816;2023-08-06T11:57:15;1.80;;;1.70;;
64887;SDS011;51386;53.082;8.816;2023-08-06T11:59:43;2.20;;;2.10;;
64887;SDS011;51386;53.082;8.816;2023-08-06T12:02:13;1.73;;;1.63;;
64887;SDS011;51386;53.082;8.816;2023-08-06T12:04:59;1.80;;;1.70;;
64887;SDS011;51386;53.082;8.816;2023-08-06T12:07:28;1.97;;;1.70;;
64887;SDS011;51386;53.082;8.816;2023-08-06T12:09:57;2.70;;;2.40;;
64887;SDS011;51386;53.082;8.816;2023-08-06T12:12:25;1.63;;;1.53;;
64887;SDS011;51386;53.082;8.816;2023-08-06T12:14:52;2.20;;;2.00;;
64887;SDS011;51386;53.082;8.816;2023-08-06T12:17:20;1.73;;;1.60;;
64887;SDS011;51386;53.082;8.816;2023-08-06T12:19:47;1.60;;;1.50;;
64887;SDS011;51386;53.082;8.816;2023-08-06T12:22:15;2.33;;;2.13;;
64887;SDS011;51386;53.082;8.816;2023-08-06T12:24:43;2.90;;;2.70;;
64887;SDS011;51386;53.082;8.816;2023-08-06T12:27:12;2.40;;;2.10;;
64887;SDS011;51386;53.082;8.816;2023-08-06T12:29:40;1.80;;;1.70;;
64887;SDS011;51386;53.082;8.816;2023-08-06T12:32:09;2.33;;;1.53;;
64887;SDS011;51386;53.082;8.816;2023-08-06T12:34:38;1.70;;;1.60;;
64887;SDS011;51386;53.082;8.816;2023-08-06T12:37:18;1.53;;;1.43;;
64887;SDS011;51386;53.082;8.816;2023-08-06T12:39:45;1.33;;;1.23;;
64887;SDS011;51386;53.082;8.816;2023-08-06T12:42:13;3.07;;;1.33;;
64887;SDS011;51386;53.082;8.816;2023-08-06T12:44:40;1.60;;;1.50;;
64887;SDS011;51386;53.082;8.816;2023-08-06T12:47:07;1.90;;;1.50;;
64887;SDS011;51386;53.082;8.816;2023-08-06T12:49:35;1.70;;;1.60;;
64887;SDS011;51386;53.082;8.816;2023-08-06T12:52:03;1.73;;;1.63;;
64887;SDS011;51386;53.082;8.816;2023-08-06T12:54:33;2.70;;;1.77;;
64887;SDS011;51386;53.082;8.816;2023-08-06T12:57:03;2.87;;;1.53;;
64887;SDS011;51386;53.082;8.816;2023-08-06T12:59:31;2.83;;;1.47;;
64887;SDS011;51386;53.082;8.816;2023-08-06T13:02:06;1.70;;;1.60;;
64887;SDS011;51386;53.082;8.816;2023-08-06T13:04:33;1.40;;;1.40;;
64887;SDS011;51386;53.082;8.816;2023-08-06T13:07:00;3.10;;;2.80;;
64887;SDS011;51386;53.082;8.816;2023-08-06T13:09:29;3.20;;;3.00;;
64887;SDS011;51386;53.082;8.816;2023-08-06T13:11:58;2.00;;;1.90;;
64887;SDS011;51386;53.082;8.816;2023-08-06T13:14:26;1.83;;;1.73;;
64887;SDS011;51386;53.082;8.816;2023-08-06T13:16:54;2.00;;;1.77;;
64887;SDS011;51386;53.082;8.816;2023-08-06T13:19:22;3.90;;;3.57;;
64887;SDS011;51386;53.082;8.816;2023-08-06T13:21:59;4.50;;;4.10;;
64887;SDS011;51386;53.082;8.816;2023-08-06T13:24:31;4.97;;;4.00;;
64887;SDS011;51386;53.082;8.816;2023-08-06T13:26:58;2.93;;;2.73;;
64887;SDS011;51386;53.082;8.816;2023-08-06T13:29:25;2.30;;;2.10;;
64887;SDS011;51386;53.082;8.816;2023-08-06T13:31:53;2.13;;;2.03;;
64887;SDS011;51386;53.082;8.816;2023-08-06T13:34:21;4.77;;;4.37;;
64887;SDS011;51386;53.082;8.816;2023-08-06T13:36:48;3.70;;;3.40;;
64887;SDS011;51386;53.082;8.816;2023-08-06T13:39:16;3.93;;;2.33;;
64887;SDS011;51386;53.082;8.816;2023-08-06T13:41:45;3.00;;;1.90;;
64887;SDS011;51386;53.082;8.816;2023-08-06T13:44:12;2.40;;;2.00;;
64887;SDS011;51386;53.082;8.816;2023-08-06T13:46:41;2.33;;;2.10;;
64887;SDS011;51386;53.082;8.816;2023-08-06T13:49:08;2.30;;;2.10;;
64887;SDS011;51386;53.082;8.816;2023-08-06T13:51:35;2.70;;;2.27;;
64887;SDS011;51386;53.082;8.816;2023-08-06T13:54:03;2.13;;;1.97;;
64887;SDS011;51386;53.082;8.816;2023-08-06T13:56:30;2.10;;;1.80;;
64887;SDS011;51386;53.082;8.816;2023-08-06T13:59:00;2.00;;;1.90;;
64887;SDS011;51386;53.082;8.816;2023-08-06T14:01:27;1.87;;;1.77;;
64887;SDS011;51386;53.082;8.816;2023-08-06T14:04:13;1.90;;;1.80;;
64887;SDS011;51386;53.082;8.816;2023-08-06T14:06:40;1.90;;;1.80;;
64887;SDS011;51386;53.082;8.816;2023-08-06T14:09:07;3.10;;;2.30;;
64887;SDS011;51386;53.082;8.816;2023-08-06T14:11:34;1.80;;;1.70;;
64887;SDS011;51386;53.082;8.816;2023-08-06T14:14:02;1.70;;;1.60;;
64887;SDS011;51386;53.082;8.816;2023-08-06T14:16:29;2.00;;;1.80;;
64887;SDS011;51386;53.082;8.816;2023-08-06T14:18:56;1.83;;;1.73;;
64887;SDS011;51386;53.082;8.816;2023-08-06T14:21:23;3.47;;;3.17;;
64887;SDS011;51386;53.082;8.816;2023-08-06T14:23:50;3.70;;;2.93;;
64887;SDS011;51386;53.082;8.816;2023-08-06T14:26:17;3.87;;;3.57;;
64887;SDS011;51386;53.082;8.816;2023-08-06T14:28:44;3.03;;;2.03;;
64887;SDS011;51386;53.082;8.816;2023-08-06T14:31:13;1.90;;;1.70;;
64887;SDS011;51386;53.082;8.816;2023-08-06T14:33:40;2.07;;;1.97;;
64887;SDS011;51386;53.082;8.816;2023-08-06T14:36:07;1.80;;;1.70;;
64887;SDS011;51386;53.082;8.816;2023-08-06T14:38:34;1.70;;;1.60;;
64887;SDS011;51386;53.082;8.816;2023-08-06T14:41:15;1.87;;;1.77;;
64887;SDS011;51386;53.082;8.816;2023-08-06T14:43:43;1.67;;;1.57;;
64887;SDS011;51386;53.082;8.816;2023-08-06T14:46:09;1.90;;;1.53;;
64887;SDS011;51386;53.082;8.816;2023-08-06T14:48:38;2.57;;;2.37;;
64887;SDS011;51386;53.082;8.816;2023-08-06T14:51:05;4.97;;;4.40;;
64887;SDS011;51386;53.082;8.816;2023-08-06T14:53:32;5.23;;;4.80;;
64887;SDS011;51386;53.082;8.816;2023-08-06T14:55:59;4.23;;;3.93;;
64887;SDS011;51386;53.082;8.816;2023-08-06T14:58:26;2.80;;;2.60;;